We are ready for push and start, Oasis 700.

You are here: Home Weather Center

[source: ADDS]
METAR
VHHH 231330Z 09017KT 6000 -RA FEW007 SCT024 23/21 Q1011 NOSIG =
RCTP 231330Z 04012KT 9999 FEW008 SCT015 BKN040 22/18 Q1013 NOSIG RMK A2993 =
TAF
TAF VHHH 231100Z 2312/2418 10015KT 7000 FEW010 SCT020 TX26/2406Z TN22/2322Z TEMPO 2312/2318 10020G30KT TEMPO 2321/2403 3000 -RA BR =
TAF RCTP 231110Z 2312/2418 06010KT 9000 FEW010 BKN022 BKN040 TEMPO 2312/2317 FEW016 BKN032 TEMPO 2317/2401 01007KT 3500 RA FEW007 BKN012 BKN030 TEMPO 2405/2412 05005KT FEW016 BKN032 =

Image Captured from Google Map

ALL THE WEATHER INFO OF HONG KONG AIRPORT COMES FROM HONG KONG OBSERVATORY

TAF (機場天氣預報)

METAR/SPECI (機場天氣報告)

SIGMET (向航機發出的危險天氣警告)

Virtual Oasis Asia Airlines is a VA-Partner of VATSIM and is not affiliated with any real world airline or aviation organization. All the materials and information are for flight simulator ONLY and NOT for real world use.
Click here to view our VA Policy.

Copyright © Virtual Oasis Asia Airlines 2014 Downloaded from

Template by Templates for Joomla & Suknie Ślubne.